sensor_id;sensor_type;location;lat;lon;timestamp;temperature;humidity
23385;DHT22;11865;45.394;10.978;2022-09-21T00:01:27;17.60;94.50
23385;DHT22;11865;45.394;10.978;2022-09-21T00:03:57;17.60;94.50
23385;DHT22;11865;45.394;10.978;2022-09-21T00:06:26;17.60;94.50
23385;DHT22;11865;45.394;10.978;2022-09-21T00:08:56;17.60;94.50
23385;DHT22;11865;45.394;10.978;2022-09-21T00:11:28;17.60;94.60
23385;DHT22;11865;45.394;10.978;2022-09-21T00:14:02;17.50;94.70
23385;DHT22;11865;45.394;10.978;2022-09-21T00:16:31;17.50;94.70
23385;DHT22;11865;45.394;10.978;2022-09-21T00:18:59;17.50;94.80
23385;DHT22;11865;45.394;10.978;2022-09-21T00:21:27;17.50;94.80
23385;DHT22;11865;45.394;10.978;2022-09-21T00:23:54;17.40;94.80
23385;DHT22;11865;45.394;10.978;2022-09-21T00:26:24;17.40;94.90
23385;DHT22;11865;45.394;10.978;2022-09-21T00:29:01;17.40;94.90
23385;DHT22;11865;45.394;10.978;2022-09-21T00:31:29;17.40;94.90
23385;DHT22;11865;45.394;10.978;2022-09-21T00:33:58;17.40;95.00
23385;DHT22;11865;45.394;10.978;2022-09-21T00:36:26;17.50;95.00
23385;DHT22;11865;45.394;10.978;2022-09-21T00:38:56;17.50;94.90
23385;DHT22;11865;45.394;10.978;2022-09-21T00:41:25;17.50;95.30
23385;DHT22;11865;45.394;10.978;2022-09-21T00:44:27;17.50;94.80
23385;DHT22;11865;45.394;10.978;2022-09-21T00:47:00;17.50;95.00
23385;DHT22;11865;45.394;10.978;2022-09-21T00:49:28;17.50;95.40
23385;DHT22;11865;45.394;10.978;2022-09-21T00:51:57;17.50;95.00
23385;DHT22;11865;45.394;10.978;2022-09-21T00:54:29;17.50;95.40
23385;DHT22;11865;45.394;10.978;2022-09-21T00:56:57;17.50;94.90
23385;DHT22;11865;45.394;10.978;2022-09-21T00:59:34;17.50;95.00
23385;DHT22;11865;45.394;10.978;2022-09-21T01:02:04;17.50;95.00
23385;DHT22;11865;45.394;10.978;2022-09-21T01:04:33;17.50;95.10
23385;DHT22;11865;45.394;10.978;2022-09-21T01:07:05;17.50;95.20
23385;DHT22;11865;45.394;10.978;2022-09-21T01:09:34;17.50;95.20
23385;DHT22;11865;45.394;10.978;2022-09-21T01:14:53;17.60;95.10
23385;DHT22;11865;45.394;10.978;2022-09-21T01:17:33;17.70;95.10
23385;DHT22;11865;45.394;10.978;2022-09-21T01:26:15;17.60;95.40
23385;DHT22;11865;45.394;10.978;2022-09-21T01:31:35;17.50;96.30
23385;DHT22;11865;45.394;10.978;2022-09-21T01:34:27;17.40;97.20
23385;DHT22;11865;45.394;10.978;2022-09-21T01:36:58;17.20;98.80
23385;DHT22;11865;45.394;10.978;2022-09-21T01:39:27;17.00;99.60
23385;DHT22;11865;45.394;10.978;2022-09-21T01:41:56;16.80;99.90
23385;DHT22;11865;45.394;10.978;2022-09-21T01:44:28;16.70;99.90
23385;DHT22;11865;45.394;10.978;2022-09-21T01:47:01;16.50;99.10
23385;DHT22;11865;45.394;10.978;2022-09-21T01:49:34;16.40;99.00
23385;DHT22;11865;45.394;10.978;2022-09-21T01:52:25;16.20;98.80
23385;DHT22;11865;45.394;10.978;2022-09-21T01:54:59;16.10;98.50
23385;DHT22;11865;45.394;10.978;2022-09-21T01:57:37;16.00;98.50
23385;DHT22;11865;45.394;10.978;2022-09-21T02:00:07;15.90;99.00
23385;DHT22;11865;45.394;10.978;2022-09-21T02:05:21;15.50;99.90
23385;DHT22;11865;45.394;10.978;2022-09-21T02:07:51;15.20;99.90
23385;DHT22;11865;45.394;10.978;2022-09-21T02:10:27;15.10;99.90
23385;DHT22;11865;45.394;10.978;2022-09-21T02:12:59;14.90;99.90
23385;DHT22;11865;45.394;10.978;2022-09-21T02:15:41;14.70;99.90
23385;DHT22;11865;45.394;10.978;2022-09-21T02:21:22;14.60;99.90
23385;DHT22;11865;45.394;10.978;2022-09-21T02:26:39;14.20;99.90
23385;DHT22;11865;45.394;10.978;2022-09-21T02:29:29;14.00;99.90
23385;DHT22;11865;45.394;10.978;2022-09-21T02:35:03;13.80;99.90
23385;DHT22;11865;45.394;10.978;2022-09-21T02:37:47;13.70;99.90
23385;DHT22;11865;45.394;10.978;2022-09-21T02:40:29;13.70;99.90
23385;DHT22;11865;45.394;10.978;2022-09-21T02:43:05;13.70;99.90
23385;DHT22;11865;45.394;10.978;2022-09-21T02:45:42;13.70;99.90
23385;DHT22;11865;45.394;10.978;2022-09-21T02:48:15;13.70;99.90
23385;DHT22;11865;45.394;10.978;2022-09-21T02:50:47;13.70;99.90
23385;DHT22;11865;45.394;10.978;2022-09-21T02:53:22;13.80;99.90
23385;DHT22;11865;45.394;10.978;2022-09-21T02:55:51;13.70;99.90
23385;DHT22;11865;45.394;10.978;2022-09-21T02:58:25;13.70;99.90
23385;DHT22;11865;45.394;10.978;2022-09-21T03:00:55;13.80;99.90
23385;DHT22;11865;45.394;10.978;2022-09-21T03:03:24;13.80;99.90
23385;DHT22;11865;45.394;10.978;2022-09-21T03:05:53;13.80;99.90
23385;DHT22;11865;45.394;10.978;2022-09-21T03:08:21;13.80;99.90
23385;DHT22;11865;45.394;10.978;2022-09-21T03:10:48;13.80;99.90
23385;DHT22;11865;45.394;10.978;2022-09-21T03:13:17;13.80;99.90
23385;DHT22;11865;45.394;10.978;2022-09-21T03:15:45;13.80;99.90
23385;DHT22;11865;45.394;10.978;2022-09-21T03:18:13;13.80;99.90
23385;DHT22;11865;45.394;10.978;2022-09-21T03:20:44;13.80;99.90
23385;DHT22;11865;45.394;10.978;2022-09-21T03:23:12;13.80;99.90
23385;DHT22;11865;45.394;10.978;2022-09-21T03:25:43;13.80;99.90
23385;DHT22;11865;45.394;10.978;2022-09-21T03:28:12;13.90;99.90
23385;DHT22;11865;45.394;10.978;2022-09-21T03:30:41;13.80;99.90
23385;DHT22;11865;45.394;10.978;2022-09-21T03:33:08;13.90;99.90
23385;DHT22;11865;45.394;10.978;2022-09-21T03:35:36;13.80;99.90
23385;DHT22;11865;45.394;10.978;2022-09-21T03:38:04;13.80;99.90
23385;DHT22;11865;45.394;10.978;2022-09-21T03:40:32;13.80;99.90
23385;DHT22;11865;45.394;10.978;2022-09-21T03:42:59;13.90;99.90
23385;DHT22;11865;45.394;10.978;2022-09-21T03:45:27;13.80;99.90
23385;DHT22;11865;45.394;10.978;2022-09-21T03:47:58;13.90;99.90
23385;DHT22;11865;45.394;10.978;2022-09-21T03:50:27;13.90;99.90
23385;DHT22;11865;45.394;10.978;2022-09-21T03:52:56;13.90;99.90
23385;DHT22;11865;45.394;10.978;2022-09-21T03:55:23;13.90;99.90
23385;DHT22;11865;45.394;10.978;2022-09-21T03:57:51;14.00;99.90
23385;DHT22;11865;45.394;10.978;2022-09-21T04:00:19;13.90;99.90
23385;DHT22;11865;45.394;10.978;2022-09-21T04:02:47;14.00;99.90
23385;DHT22;11865;45.394;10.978;2022-09-21T04:05:16;14.00;99.90
23385;DHT22;11865;45.394;10.978;2022-09-21T04:07:44;14.00;99.90
23385;DHT22;11865;45.394;10.978;2022-09-21T04:10:14;14.10;99.90
23385;DHT22;11865;45.394;10.978;2022-09-21T04:12:43;14.10;99.90
23385;DHT22;11865;45.394;10.978;2022-09-21T04:15:13;14.10;99.90
23385;DHT22;11865;45.394;10.978;2022-09-21T04:17:40;14.10;99.90
23385;DHT22;11865;45.394;10.978;2022-09-21T04:20:08;14.20;99.90
23385;DHT22;11865;45.394;10.978;2022-09-21T04:22:36;14.20;99.90
23385;DHT22;11865;45.394;10.978;2022-09-21T04:25:09;14.20;99.90
23385;DHT22;11865;45.394;10.978;2022-09-21T04:27:37;14.30;99.90
23385;DHT22;11865;45.394;10.978;2022-09-21T04:30:05;14.30;99.90
23385;DHT22;11865;45.394;10.978;2022-09-21T04:32:32;14.30;99.90
23385;DHT22;11865;45.394;10.978;2022-09-21T04:35:00;14.30;99.90
23385;DHT22;11865;45.394;10.978;2022-09-21T04:37:27;14.40;99.90
23385;DHT22;11865;45.394;10.978;2022-09-21T04:39:54;14.40;99.90
23385;DHT22;11865;45.394;10.978;2022-09-21T04:42:22;14.30;99.90
23385;DHT22;11865;45.394;10.978;2022-09-21T04:44:49;14.20;99.90
23385;DHT22;11865;45.394;10.978;2022-09-21T04:47:17;14.10;99.90
23385;DHT22;11865;45.394;10.978;2022-09-21T04:49:45;14.10;99.90
23385;DHT22;11865;45.394;10.978;2022-09-21T04:52:12;14.10;99.90
23385;DHT22;11865;45.394;10.978;2022-09-21T04:54:46;14.10;99.90
23385;DHT22;11865;45.394;10.978;2022-09-21T04:57:14;14.10;99.90
23385;DHT22;11865;45.394;10.978;2022-09-21T04:59:41;14.20;99.90
23385;DHT22;11865;45.394;10.978;2022-09-21T05:02:08;14.20;99.90
23385;DHT22;11865;45.394;10.978;2022-09-21T05:04:36;14.20;99.90
23385;DHT22;11865;45.394;10.978;2022-09-21T05:07:03;14.40;99.90
23385;DHT22;11865;45.394;10.978;2022-09-21T05:09:31;14.50;99.90
23385;DHT22;11865;45.394;10.978;2022-09-21T05:12:16;14.50;99.90
23385;DHT22;11865;45.394;10.978;2022-09-21T05:14:44;14.60;99.90
23385;DHT22;11865;45.394;10.978;2022-09-21T05:17:11;14.60;99.90
23385;DHT22;11865;45.394;10.978;2022-09-21T05:19:39;14.60;99.90
23385;DHT22;11865;45.394;10.978;2022-09-21T05:22:07;14.60;99.90
23385;DHT22;11865;45.394;10.978;2022-09-21T05:24:35;14.60;99.90
23385;DHT22;11865;45.394;10.978;2022-09-21T05:27:02;14.60;99.90
23385;DHT22;11865;45.394;10.978;2022-09-21T05:29:30;14.70;99.90
23385;DHT22;11865;45.394;10.978;2022-09-21T05:32:24;14.70;99.90
23385;DHT22;11865;45.394;10.978;2022-09-21T05:37:47;14.80;99.90
23385;DHT22;11865;45.394;10.978;2022-09-21T05:40:17;14.80;99.90
23385;DHT22;11865;45.394;10.978;2022-09-21T05:42:44;14.80;99.90
23385;DHT22;11865;45.394;10.978;2022-09-21T05:45:14;14.90;99.90
23385;DHT22;11865;45.394;10.978;2022-09-21T05:50:43;15.00;99.90
23385;DHT22;11865;45.394;10.978;2022-09-21T05:53:37;15.00;99.90
23385;DHT22;11865;45.394;10.978;2022-09-21T06:04:49;15.40;99.90
23385;DHT22;11865;45.394;10.978;2022-09-21T06:07:17;15.40;99.90
23385;DHT22;11865;45.394;10.978;2022-09-21T06:09:45;15.50;99.90
23385;DHT22;11865;45.394;10.978;2022-09-21T06:12:12;15.60;99.90
23385;DHT22;11865;45.394;10.978;2022-09-21T06:14:39;15.70;99.90
23385;DHT22;11865;45.394;10.978;2022-09-21T06:17:07;15.80;99.90
23385;DHT22;11865;45.394;10.978;2022-09-21T06:19:34;15.80;99.90
23385;DHT22;11865;45.394;10.978;2022-09-21T06:22:02;15.90;99.90
23385;DHT22;11865;45.394;10.978;2022-09-21T06:24:29;16.00;99.90
23385;DHT22;11865;45.394;10.978;2022-09-21T06:26:56;16.00;99.70
23385;DHT22;11865;45.394;10.978;2022-09-21T06:29:24;15.90;99.20
23385;DHT22;11865;45.394;10.978;2022-09-21T06:31:51;16.00;99.20
23385;DHT22;11865;45.394;10.978;2022-09-21T06:34:19;16.10;99.80
23385;DHT22;11865;45.394;10.978;2022-09-21T06:36:46;16.20;99.80
23385;DHT22;11865;45.394;10.978;2022-09-21T06:39:13;16.30;99.90
23385;DHT22;11865;45.394;10.978;2022-09-21T06:41:41;16.30;99.60
23385;DHT22;11865;45.394;10.978;2022-09-21T06:44:09;16.40;99.00
23385;DHT22;11865;45.394;10.978;2022-09-21T06:46:37;16.40;99.40
23385;DHT22;11865;45.394;10.978;2022-09-21T06:49:04;16.20;98.90
23385;DHT22;11865;45.394;10.978;2022-09-21T06:51:32;16.20;99.10
23385;DHT22;11865;45.394;10.978;2022-09-21T06:53:59;16.30;98.50
23385;DHT22;11865;45.394;10.978;2022-09-21T06:56:27;16.20;98.40
23385;DHT22;11865;45.394;10.978;2022-09-21T06:58:55;16.30;98.10
23385;DHT22;11865;45.394;10.978;2022-09-21T07:01:22;16.30;99.00
23385;DHT22;11865;45.394;10.978;2022-09-21T07:03:51;16.40;98.70
23385;DHT22;11865;45.394;10.978;2022-09-21T07:06:19;16.50;98.90
23385;DHT22;11865;45.394;10.978;2022-09-21T07:08:47;16.30;97.90
23385;DHT22;11865;45.394;10.978;2022-09-21T07:11:34;16.30;98.30
23385;DHT22;11865;45.394;10.978;2022-09-21T07:14:02;16.40;97.60
23385;DHT22;11865;45.394;10.978;2022-09-21T07:16:30;16.40;97.50
23385;DHT22;11865;45.394;10.978;2022-09-21T07:18:58;16.50;97.10
23385;DHT22;11865;45.394;10.978;2022-09-21T07:21:37;16.70;96.40
23385;DHT22;11865;45.394;10.978;2022-09-21T07:24:05;16.80;95.40
23385;DHT22;11865;45.394;10.978;2022-09-21T07:26:38;16.90;95.40
23385;DHT22;11865;45.394;10.978;2022-09-21T07:29:06;17.10;94.40
23385;DHT22;11865;45.394;10.978;2022-09-21T07:31:33;17.10;93.90
23385;DHT22;11865;45.394;10.978;2022-09-21T07:34:01;17.10;92.70
23385;DHT22;11865;45.394;10.978;2022-09-21T07:36:28;17.30;92.10
23385;DHT22;11865;45.394;10.978;2022-09-21T07:38:56;17.40;92.10
23385;DHT22;11865;45.394;10.978;2022-09-21T07:41:23;17.70;92.20
23385;DHT22;11865;45.394;10.978;2022-09-21T07:43:51;17.80;91.50
23385;DHT22;11865;45.394;10.978;2022-09-21T07:46:19;17.90;90.70
23385;DHT22;11865;45.394;10.978;2022-09-21T07:48:46;17.80;90.70
23385;DHT22;11865;45.394;10.978;2022-09-21T07:51:14;17.90;90.50
23385;DHT22;11865;45.394;10.978;2022-09-21T07:53:43;18.00;90.70
23385;DHT22;11865;45.394;10.978;2022-09-21T07:56:16;17.80;90.10
23385;DHT22;11865;45.394;10.978;2022-09-21T07:58:43;17.90;89.90
23385;DHT22;11865;45.394;10.978;2022-09-21T08:01:30;18.00;89.90
23385;DHT22;11865;45.394;10.978;2022-09-21T08:03:58;17.90;89.90
23385;DHT22;11865;45.394;10.978;2022-09-21T08:06:27;18.10;90.00
23385;DHT22;11865;45.394;10.978;2022-09-21T08:08:56;18.30;90.00
23385;DHT22;11865;45.394;10.978;2022-09-21T08:11:25;18.10;89.00
23385;DHT22;11865;45.394;10.978;2022-09-21T08:13:58;18.20;89.30
23385;DHT22;11865;45.394;10.978;2022-09-21T08:16:28;18.30;88.90
23385;DHT22;11865;45.394;10.978;2022-09-21T08:18:56;18.30;87.90
23385;DHT22;11865;45.394;10.978;2022-09-21T08:21:23;18.50;88.40
23385;DHT22;11865;45.394;10.978;2022-09-21T08:23:50;18.40;87.70
23385;DHT22;11865;45.394;10.978;2022-09-21T08:26:19;18.40;87.60
23385;DHT22;11865;45.394;10.978;2022-09-21T08:28:48;18.20;87.10
23385;DHT22;11865;45.394;10.978;2022-09-21T08:31:21;18.30;86.30
23385;DHT22;11865;45.394;10.978;2022-09-21T08:33:51;18.60;87.20
23385;DHT22;11865;45.394;10.978;2022-09-21T08:36:19;18.60;85.30
23385;DHT22;11865;45.394;10.978;2022-09-21T08:38:47;18.50;84.50
23385;DHT22;11865;45.394;10.978;2022-09-21T08:42:07;18.40;83.10
23385;DHT22;11865;45.394;10.978;2022-09-21T08:44:27;18.70;84.60
23385;DHT22;11865;45.394;10.978;2022-09-21T08:47:17;18.80;81.20
23385;DHT22;11865;45.394;10.978;2022-09-21T08:49:52;19.00;81.10
23385;DHT22;11865;45.394;10.978;2022-09-21T08:52:22;19.20;80.10
23385;DHT22;11865;45.394;10.978;2022-09-21T08:54:56;19.40;80.50
23385;DHT22;11865;45.394;10.978;2022-09-21T08:57:28;19.10;77.60
23385;DHT22;11865;45.394;10.978;2022-09-21T08:59:58;19.30;78.80
23385;DHT22;11865;45.394;10.978;2022-09-21T09:16:32;19.70;80.30
23385;DHT22;11865;45.394;10.978;2022-09-21T09:21:40;19.50;78.70
23385;DHT22;11865;45.394;10.978;2022-09-21T09:24:16;19.40;78.80
23385;DHT22;11865;45.394;10.978;2022-09-21T09:26:52;19.40;80.00
23385;DHT22;11865;45.394;10.978;2022-09-21T09:32:15;19.60;79.80
23385;DHT22;11865;45.394;10.978;2022-09-21T09:35:28;19.40;78.30
23385;DHT22;11865;45.394;10.978;2022-09-21T09:38:02;19.60;78.70
23385;DHT22;11865;45.394;10.978;2022-09-21T09:43:44;19.80;79.30
23385;DHT22;11865;45.394;10.978;2022-09-21T09:49:58;19.80;77.40
23385;DHT22;11865;45.394;10.978;2022-09-21T09:52:29;19.80;79.50
23385;DHT22;11865;45.394;10.978;2022-09-21T09:55:10;19.80;78.40
23385;DHT22;11865;45.394;10.978;2022-09-21T09:57:40;19.80;80.00
23385;DHT22;11865;45.394;10.978;2022-09-21T10:00:12;19.80;79.90
23385;DHT22;11865;45.394;10.978;2022-09-21T10:02:54;19.80;79.00
23385;DHT22;11865;45.394;10.978;2022-09-21T10:05:24;19.50;80.70
23385;DHT22;11865;45.394;10.978;2022-09-21T10:07:57;19.30;80.10
23385;DHT22;11865;45.394;10.978;2022-09-21T10:16:04;19.70;80.90
23385;DHT22;11865;45.394;10.978;2022-09-21T10:19:14;19.90;81.00
23385;DHT22;11865;45.394;10.978;2022-09-21T10:21:39;19.80;82.10
23385;DHT22;11865;45.394;10.978;2022-09-21T10:24:21;19.80;80.40
23385;DHT22;11865;45.394;10.978;2022-09-21T10:27:05;19.60;80.00
23385;DHT22;11865;45.394;10.978;2022-09-21T10:29:42;19.80;80.30
23385;DHT22;11865;45.394;10.978;2022-09-21T10:35:00;19.90;77.50
23385;DHT22;11865;45.394;10.978;2022-09-21T10:37:34;20.00;78.90
23385;DHT22;11865;45.394;10.978;2022-09-21T10:40:08;19.80;79.00
23385;DHT22;11865;45.394;10.978;2022-09-21T10:42:53;19.90;79.40
23385;DHT22;11865;45.394;10.978;2022-09-21T10:45:25;20.10;80.60
23385;DHT22;11865;45.394;10.978;2022-09-21T10:50:26;20.00;81.00
23385;DHT22;11865;45.394;10.978;2022-09-21T10:53:10;20.30;80.60
23385;DHT22;11865;45.394;10.978;2022-09-21T10:58:34;20.20;79.90
23385;DHT22;11865;45.394;10.978;2022-09-21T11:01:19;20.40;80.30
23385;DHT22;11865;45.394;10.978;2022-09-21T11:09:08;20.10;79.00
23385;DHT22;11865;45.394;10.978;2022-09-21T11:11:54;20.20;79.40
23385;DHT22;11865;45.394;10.978;2022-09-21T11:14:55;20.20;80.30
23385;DHT22;11865;45.394;10.978;2022-09-21T11:17:48;19.90;78.90
23385;DHT22;11865;45.394;10.978;2022-09-21T11:28:46;20.20;75.40
23385;DHT22;11865;45.394;10.978;2022-09-21T11:40:24;20.90;69.60
23385;DHT22;11865;45.394;10.978;2022-09-21T11:59:51;21.00;68.00
23385;DHT22;11865;45.394;10.978;2022-09-21T12:18:47;21.10;67.20
23385;DHT22;11865;45.394;10.978;2022-09-21T12:21:20;21.10;65.90
23385;DHT22;11865;45.394;10.978;2022-09-21T12:26:26;20.90;67.90
23385;DHT22;11865;45.394;10.978;2022-09-21T12:29:16;20.80;66.30
23385;DHT22;11865;45.394;10.978;2022-09-21T12:32:02;20.50;65.80
23385;DHT22;11865;45.394;10.978;2022-09-21T12:34:40;20.60;66.30
23385;DHT22;11865;45.394;10.978;2022-09-21T12:37:20;20.60;67.00
23385;DHT22;11865;45.394;10.978;2022-09-21T12:40:16;20.80;69.60
23385;DHT22;11865;45.394;10.978;2022-09-21T12:45:53;20.80;65.40
23385;DHT22;11865;45.394;10.978;2022-09-21T12:48:32;20.70;64.40
23385;DHT22;11865;45.394;10.978;2022-09-21T12:51:09;20.80;65.60
23385;DHT22;11865;45.394;10.978;2022-09-21T12:53:42;20.80;67.50
23385;DHT22;11865;45.394;10.978;2022-09-21T13:01:54;20.90;66.20
23385;DHT22;11865;45.394;10.978;2022-09-21T13:09:30;21.10;63.70
23385;DHT22;11865;45.394;10.978;2022-09-21T13:11:59;21.10;65.00
23385;DHT22;11865;45.394;10.978;2022-09-21T13:14:30;21.10;65.40
23385;DHT22;11865;45.394;10.978;2022-09-21T13:17:02;21.00;65.90
23385;DHT22;11865;45.394;10.978;2022-09-21T13:19:33;21.00;65.40
23385;DHT22;11865;45.394;10.978;2022-09-21T13:22:24;21.00;62.70
23385;DHT22;11865;45.394;10.978;2022-09-21T13:25:03;21.10;64.70
23385;DHT22;11865;45.394;10.978;2022-09-21T13:28:15;21.00;64.00
23385;DHT22;11865;45.394;10.978;2022-09-21T13:47:41;21.30;61.10
23385;DHT22;11865;45.394;10.978;2022-09-21T13:50:23;21.60;62.30
23385;DHT22;11865;45.394;10.978;2022-09-21T13:52:53;21.60;61.40
23385;DHT22;11865;45.394;10.978;2022-09-21T13:55:31;21.50;64.40
23385;DHT22;11865;45.394;10.978;2022-09-21T13:58:05;21.40;61.30
23385;DHT22;11865;45.394;10.978;2022-09-21T14:00:39;21.40;60.40
23385;DHT22;11865;45.394;10.978;2022-09-21T14:03:21;21.20;64.00
23385;DHT22;11865;45.394;10.978;2022-09-21T14:06:01;21.00;62.70
23385;DHT22;11865;45.394;10.978;2022-09-21T14:11:38;20.80;62.10
23385;DHT22;11865;45.394;10.978;2022-09-21T14:14:13;21.00;64.60
23385;DHT22;11865;45.394;10.978;2022-09-21T14:24:43;20.80;62.30
23385;DHT22;11865;45.394;10.978;2022-09-21T14:27:15;21.10;65.80
23385;DHT22;11865;45.394;10.978;2022-09-21T14:32:23;20.90;63.70
23385;DHT22;11865;45.394;10.978;2022-09-21T14:34:55;20.90;64.50
23385;DHT22;11865;45.394;10.978;2022-09-21T14:37:37;20.90;64.80
23385;DHT22;11865;45.394;10.978;2022-09-21T14:40:21;20.90;65.40
23385;DHT22;11865;45.394;10.978;2022-09-21T14:42:53;20.80;63.80
23385;DHT22;11865;45.394;10.978;2022-09-21T14:48:15;20.70;64.40
23385;DHT22;11865;45.394;10.978;2022-09-21T14:50:55;20.70;64.40
23385;DHT22;11865;45.394;10.978;2022-09-21T14:54:02;20.70;64.40
23385;DHT22;11865;45.394;10.978;2022-09-21T15:02:23;20.80;63.70
23385;DHT22;11865;45.394;10.978;2022-09-21T15:08:41;20.50;64.20
23385;DHT22;11865;45.394;10.978;2022-09-21T15:12:00;20.80;65.00
23385;DHT22;11865;45.394;10.978;2022-09-21T15:14:37;20.80;66.10
23385;DHT22;11865;45.394;10.978;2022-09-21T15:17:23;20.70;68.70
23385;DHT22;11865;45.394;10.978;2022-09-21T15:19:56;20.50;65.10
23385;DHT22;11865;45.394;10.978;2022-09-21T15:22:26;20.50;66.00
23385;DHT22;11865;45.394;10.978;2022-09-21T15:24:56;20.50;65.50
23385;DHT22;11865;45.394;10.978;2022-09-21T15:27:28;20.60;66.70
23385;DHT22;11865;45.394;10.978;2022-09-21T15:30:04;20.40;64.20
23385;DHT22;11865;45.394;10.978;2022-09-21T15:32:40;20.50;68.00
23385;DHT22;11865;45.394;10.978;2022-09-21T15:37:42;20.30;66.10
23385;DHT22;11865;45.394;10.978;2022-09-21T15:43:13;20.40;64.60
23385;DHT22;11865;45.394;10.978;2022-09-21T15:46:05;20.50;65.50
23385;DHT22;11865;45.394;10.978;2022-09-21T15:48:37;20.40;68.80
23385;DHT22;11865;45.394;10.978;2022-09-21T15:51:15;20.30;65.40
23385;DHT22;11865;45.394;10.978;2022-09-21T15:53:50;20.30;66.10
23385;DHT22;11865;45.394;10.978;2022-09-21T15:56:23;20.20;66.90
23385;DHT22;11865;45.394;10.978;2022-09-21T15:58:59;20.20;68.10
23385;DHT22;11865;45.394;10.978;2022-09-21T16:01:56;20.20;66.60
23385;DHT22;11865;45.394;10.978;2022-09-21T16:04:26;20.10;68.50
23385;DHT22;11865;45.394;10.978;2022-09-21T16:07:05;20.10;68.80
23385;DHT22;11865;45.394;10.978;2022-09-21T16:09:40;20.10;67.70
23385;DHT22;11865;45.394;10.978;2022-09-21T16:12:30;20.00;67.00
23385;DHT22;11865;45.394;10.978;2022-09-21T16:15:26;20.00;65.90
23385;DHT22;11865;45.394;10.978;2022-09-21T16:18:03;20.00;68.20
23385;DHT22;11865;45.394;10.978;2022-09-21T16:20:46;19.90;68.20
23385;DHT22;11865;45.394;10.978;2022-09-21T16:23:22;19.80;67.70
23385;DHT22;11865;45.394;10.978;2022-09-21T16:25:56;19.70;69.30
23385;DHT22;11865;45.394;10.978;2022-09-21T16:31:24;19.60;70.40
23385;DHT22;11865;45.394;10.978;2022-09-21T16:34:38;19.50;68.90
23385;DHT22;11865;45.394;10.978;2022-09-21T16:36:49;19.40;70.30
23385;DHT22;11865;45.394;10.978;2022-09-21T16:39:18;19.30;70.20
23385;DHT22;11865;45.394;10.978;2022-09-21T16:41:56;19.30;69.60
23385;DHT22;11865;45.394;10.978;2022-09-21T16:44:27;19.20;70.30
23385;DHT22;11865;45.394;10.978;2022-09-21T16:46:59;19.20;70.70
23385;DHT22;11865;45.394;10.978;2022-09-21T16:49:30;19.10;71.30
23385;DHT22;11865;45.394;10.978;2022-09-21T16:51:59;19.00;71.10
23385;DHT22;11865;45.394;10.978;2022-09-21T16:54:28;19.00;71.60
23385;DHT22;11865;45.394;10.978;2022-09-21T16:56:58;18.90;72.30
23385;DHT22;11865;45.394;10.978;2022-09-21T16:59:27;18.90;72.20
23385;DHT22;11865;45.394;10.978;2022-09-21T17:01:56;18.90;72.70
23385;DHT22;11865;45.394;10.978;2022-09-21T17:04:27;18.70;72.60
23385;DHT22;11865;45.394;10.978;2022-09-21T17:06:55;18.70;71.90
23385;DHT22;11865;45.394;10.978;2022-09-21T17:09:24;18.60;72.90
23385;DHT22;11865;45.394;10.978;2022-09-21T17:11:56;18.50;72.10
23385;DHT22;11865;45.394;10.978;2022-09-21T17:14:28;18.40;72.80
23385;DHT22;11865;45.394;10.978;2022-09-21T17:17:06;18.40;72.80
23385;DHT22;11865;45.394;10.978;2022-09-21T17:19:34;18.30;73.50
23385;DHT22;11865;45.394;10.978;2022-09-21T17:22:03;18.20;74.20
23385;DHT22;11865;45.394;10.978;2022-09-21T17:24:32;18.20;74.00
23385;DHT22;11865;45.394;10.978;2022-09-21T17:27:21;18.00;74.00
23385;DHT22;11865;45.394;10.978;2022-09-21T17:29:49;18.00;74.50
23385;DHT22;11865;45.394;10.978;2022-09-21T17:32:18;17.90;75.20
23385;DHT22;11865;45.394;10.978;2022-09-21T17:35:00;17.80;75.00
23385;DHT22;11865;45.394;10.978;2022-09-21T17:37:35;17.80;75.20
23385;DHT22;11865;45.394;10.978;2022-09-21T17:40:04;17.70;76.10
23385;DHT22;11865;45.394;10.978;2022-09-21T17:42:39;17.70;76.30
23385;DHT22;11865;45.394;10.978;2022-09-21T17:47:46;17.60;77.50
23385;DHT22;11865;45.394;10.978;2022-09-21T17:50:20;17.60;77.10
23385;DHT22;11865;45.394;10.978;2022-09-21T17:52:50;17.50;76.60
23385;DHT22;11865;45.394;10.978;2022-09-21T17:55:38;17.50;78.00
23385;DHT22;11865;45.394;10.978;2022-09-21T18:03:33;17.30;77.80
23385;DHT22;11865;45.394;10.978;2022-09-21T18:06:03;17.20;78.20
23385;DHT22;11865;45.394;10.978;2022-09-21T18:08:33;17.10;77.90
23385;DHT22;11865;45.394;10.978;2022-09-21T18:19:04;16.90;79.80
23385;DHT22;11865;45.394;10.978;2022-09-21T18:21:42;16.90;80.40
23385;DHT22;11865;45.394;10.978;2022-09-21T18:24:26;16.80;80.60
23385;DHT22;11865;45.394;10.978;2022-09-21T18:26:58;16.80;81.20
23385;DHT22;11865;45.394;10.978;2022-09-21T18:29:30;16.70;81.40
23385;DHT22;11865;45.394;10.978;2022-09-21T18:32:38;16.60;81.40
23385;DHT22;11865;45.394;10.978;2022-09-21T18:38:15;16.60;82.10
23385;DHT22;11865;45.394;10.978;2022-09-21T18:43:56;16.50;82.90
23385;DHT22;11865;45.394;10.978;2022-09-21T18:46:33;16.50;83.30
23385;DHT22;11865;45.394;10.978;2022-09-21T18:49:15;16.40;83.60
23385;DHT22;11865;45.394;10.978;2022-09-21T18:54:23;16.30;84.30
23385;DHT22;11865;45.394;10.978;2022-09-21T18:56:54;16.30;85.40
23385;DHT22;11865;45.394;10.978;2022-09-21T18:59:22;16.30;85.20
23385;DHT22;11865;45.394;10.978;2022-09-21T19:01:54;16.30;85.50
23385;DHT22;11865;45.394;10.978;2022-09-21T19:04:25;16.30;85.10
23385;DHT22;11865;45.394;10.978;2022-09-21T19:07:11;16.20;85.50
23385;DHT22;11865;45.394;10.978;2022-09-21T19:12:52;16.20;85.20
23385;DHT22;11865;45.394;10.978;2022-09-21T19:15:29;16.20;85.40
23385;DHT22;11865;45.394;10.978;2022-09-21T19:27:05;16.20;84.10
23385;DHT22;11865;45.394;10.978;2022-09-21T19:30:00;16.20;84.20
23385;DHT22;11865;45.394;10.978;2022-09-21T19:35:24;16.20;83.80
23385;DHT22;11865;45.394;10.978;2022-09-21T19:37:57;16.20;84.10
23385;DHT22;11865;45.394;10.978;2022-09-21T19:40:29;16.20;87.70
23385;DHT22;11865;45.394;10.978;2022-09-21T19:43:25;16.10;84.60
23385;DHT22;11865;45.394;10.978;2022-09-21T19:48:44;16.10;84.00
23385;DHT22;11865;45.394;10.978;2022-09-21T19:51:29;16.10;83.60
23385;DHT22;11865;45.394;10.978;2022-09-21T19:53:57;16.20;83.60
23385;DHT22;11865;45.394;10.978;2022-09-21T19:56:47;16.10;83.70
23385;DHT22;11865;45.394;10.978;2022-09-21T19:59:34;16.10;83.90